sensor_id;sensor_type;location;lat;lon;timestamp;P1;durP1;ratioP1;P2;durP2;ratioP2
23670;SDS011;12012;51.998;7.614;2022-10-14T00:01:25;26.42;;;18.67;;
23670;SDS011;12012;51.998;7.614;2022-10-14T00:03:51;26.02;;;18.08;;
23670;SDS011;12012;51.998;7.614;2022-10-14T00:06:23;33.78;;;24.13;;
23670;SDS011;12012;51.998;7.614;2022-10-14T00:08:50;29.98;;;20.23;;
23670;SDS011;12012;51.998;7.614;2022-10-14T00:11:17;25.10;;;17.13;;
23670;SDS011;12012;51.998;7.614;2022-10-14T00:13:48;21.58;;;14.75;;
23670;SDS011;12012;51.998;7.614;2022-10-14T00:16:15;21.70;;;14.18;;
23670;SDS011;12012;51.998;7.614;2022-10-14T00:18:43;19.13;;;13.18;;
23670;SDS011;12012;51.998;7.614;2022-10-14T00:21:09;17.50;;;13.10;;
23670;SDS011;12012;51.998;7.614;2022-10-14T00:23:34;22.77;;;15.50;;
23670;SDS011;12012;51.998;7.614;2022-10-14T00:26:00;25.63;;;15.93;;
23670;SDS011;12012;51.998;7.614;2022-10-14T00:28:25;20.23;;;14.43;;
23670;SDS011;12012;51.998;7.614;2022-10-14T00:30:52;18.38;;;13.93;;
23670;SDS011;12012;51.998;7.614;2022-10-14T00:33:24;20.77;;;14.32;;
23670;SDS011;12012;51.998;7.614;2022-10-14T00:35:52;19.75;;;14.68;;
23670;SDS011;12012;51.998;7.614;2022-10-14T00:38:22;25.90;;;16.98;;
23670;SDS011;12012;51.998;7.614;2022-10-14T00:40:47;30.15;;;20.25;;
23670;SDS011;12012;51.998;7.614;2022-10-14T00:43:13;22.55;;;15.55;;
23670;SDS011;12012;51.998;7.614;2022-10-14T00:45:39;31.10;;;21.80;;
23670;SDS011;12012;51.998;7.614;2022-10-14T00:48:05;33.97;;;24.38;;
23670;SDS011;12012;51.998;7.614;2022-10-14T00:53:00;30.17;;;20.58;;
23670;SDS011;12012;51.998;7.614;2022-10-14T00:55:27;42.97;;;28.38;;
23670;SDS011;12012;51.998;7.614;2022-10-14T00:57:53;39.67;;;27.10;;
23670;SDS011;12012;51.998;7.614;2022-10-14T01:00:20;40.33;;;27.60;;
23670;SDS011;12012;51.998;7.614;2022-10-14T01:02:46;33.28;;;22.90;;
23670;SDS011;12012;51.998;7.614;2022-10-14T01:05:13;34.33;;;23.98;;
23670;SDS011;12012;51.998;7.614;2022-10-14T01:07:49;36.33;;;25.92;;
23670;SDS011;12012;51.998;7.614;2022-10-14T01:10:38;39.47;;;26.23;;
23670;SDS011;12012;51.998;7.614;2022-10-14T01:13:13;42.33;;;28.48;;
23670;SDS011;12012;51.998;7.614;2022-10-14T01:16:24;33.77;;;21.43;;
23670;SDS011;12012;51.998;7.614;2022-10-14T01:21:50;32.60;;;22.13;;
23670;SDS011;12012;51.998;7.614;2022-10-14T01:24:43;43.53;;;28.90;;
23670;SDS011;12012;51.998;7.614;2022-10-14T01:30:24;44.25;;;27.48;;
23670;SDS011;12012;51.998;7.614;2022-10-14T01:33:09;40.72;;;27.17;;
23670;SDS011;12012;51.998;7.614;2022-10-14T01:38:32;34.80;;;22.63;;
23670;SDS011;12012;51.998;7.614;2022-10-14T01:41:05;27.23;;;18.42;;
23670;SDS011;12012;51.998;7.614;2022-10-14T01:46:02;38.45;;;20.30;;
23670;SDS011;12012;51.998;7.614;2022-10-14T01:48:32;38.60;;;24.98;;
23670;SDS011;12012;51.998;7.614;2022-10-14T01:51:01;35.83;;;24.00;;
23670;SDS011;12012;51.998;7.614;2022-10-14T01:56:02;45.65;;;28.33;;
23670;SDS011;12012;51.998;7.614;2022-10-14T01:58:29;30.92;;;19.73;;
23670;SDS011;12012;51.998;7.614;2022-10-14T02:00:58;27.58;;;18.63;;
23670;SDS011;12012;51.998;7.614;2022-10-14T02:03:23;31.13;;;20.65;;
23670;SDS011;12012;51.998;7.614;2022-10-14T02:11:17;31.30;;;20.85;;
23670;SDS011;12012;51.998;7.614;2022-10-14T02:16:21;29.83;;;19.70;;
23670;SDS011;12012;51.998;7.614;2022-10-14T02:19:00;23.45;;;17.08;;
23670;SDS011;12012;51.998;7.614;2022-10-14T02:21:35;27.75;;;18.02;;
23670;SDS011;12012;51.998;7.614;2022-10-14T02:24:17;28.50;;;18.33;;
23670;SDS011;12012;51.998;7.614;2022-10-14T02:26:50;27.50;;;18.58;;
23670;SDS011;12012;51.998;7.614;2022-10-14T02:29:19;35.00;;;24.10;;
23670;SDS011;12012;51.998;7.614;2022-10-14T02:31:47;27.77;;;19.02;;
23670;SDS011;12012;51.998;7.614;2022-10-14T02:34:15;28.52;;;18.58;;
23670;SDS011;12012;51.998;7.614;2022-10-14T02:36:44;27.25;;;17.75;;
23670;SDS011;12012;51.998;7.614;2022-10-14T02:39:12;26.02;;;18.40;;
23670;SDS011;12012;51.998;7.614;2022-10-14T02:41:41;27.45;;;17.10;;
23670;SDS011;12012;51.998;7.614;2022-10-14T02:44:07;25.42;;;16.15;;
23670;SDS011;12012;51.998;7.614;2022-10-14T02:46:33;29.48;;;17.75;;
23670;SDS011;12012;51.998;7.614;2022-10-14T02:48:59;31.83;;;22.08;;
23670;SDS011;12012;51.998;7.614;2022-10-14T02:51:24;39.92;;;24.08;;
23670;SDS011;12012;51.998;7.614;2022-10-14T02:53:50;24.42;;;17.40;;
23670;SDS011;12012;51.998;7.614;2022-10-14T02:56:16;23.70;;;16.38;;
23670;SDS011;12012;51.998;7.614;2022-10-14T02:58:43;25.73;;;18.70;;
23670;SDS011;12012;51.998;7.614;2022-10-14T03:01:09;26.75;;;17.65;;
23670;SDS011;12012;51.998;7.614;2022-10-14T03:03:34;21.42;;;15.85;;
23670;SDS011;12012;51.998;7.614;2022-10-14T03:06:00;23.55;;;16.58;;
23670;SDS011;12012;51.998;7.614;2022-10-14T03:08:26;25.02;;;19.00;;
23670;SDS011;12012;51.998;7.614;2022-10-14T03:10:51;28.27;;;18.30;;
23670;SDS011;12012;51.998;7.614;2022-10-14T03:13:17;30.70;;;20.60;;
23670;SDS011;12012;51.998;7.614;2022-10-14T03:15:42;30.80;;;20.25;;
23670;SDS011;12012;51.998;7.614;2022-10-14T03:18:08;30.50;;;21.13;;
23670;SDS011;12012;51.998;7.614;2022-10-14T03:20:33;31.90;;;20.65;;
23670;SDS011;12012;51.998;7.614;2022-10-14T03:22:59;25.02;;;17.73;;
23670;SDS011;12012;51.998;7.614;2022-10-14T03:25:25;36.95;;;24.27;;
23670;SDS011;12012;51.998;7.614;2022-10-14T03:27:50;30.42;;;20.67;;
23670;SDS011;12012;51.998;7.614;2022-10-14T03:30:16;25.38;;;17.10;;
23670;SDS011;12012;51.998;7.614;2022-10-14T03:32:41;30.88;;;22.08;;
23670;SDS011;12012;51.998;7.614;2022-10-14T03:35:07;24.17;;;16.98;;
23670;SDS011;12012;51.998;7.614;2022-10-14T03:37:34;26.63;;;17.08;;
23670;SDS011;12012;51.998;7.614;2022-10-14T03:39:59;27.45;;;19.30;;
23670;SDS011;12012;51.998;7.614;2022-10-14T03:42:25;23.60;;;15.90;;
23670;SDS011;12012;51.998;7.614;2022-10-14T03:44:50;26.70;;;17.73;;
23670;SDS011;12012;51.998;7.614;2022-10-14T03:47:16;29.13;;;19.05;;
23670;SDS011;12012;51.998;7.614;2022-10-14T03:49:42;27.95;;;18.85;;
23670;SDS011;12012;51.998;7.614;2022-10-14T03:52:07;31.02;;;19.88;;
23670;SDS011;12012;51.998;7.614;2022-10-14T03:54:33;36.80;;;22.63;;
23670;SDS011;12012;51.998;7.614;2022-10-14T03:56:59;33.15;;;21.75;;
23670;SDS011;12012;51.998;7.614;2022-10-14T03:59:24;33.63;;;20.83;;
23670;SDS011;12012;51.998;7.614;2022-10-14T04:01:50;26.05;;;17.65;;
23670;SDS011;12012;51.998;7.614;2022-10-14T04:04:15;26.85;;;17.48;;
23670;SDS011;12012;51.998;7.614;2022-10-14T04:06:41;31.35;;;20.90;;
23670;SDS011;12012;51.998;7.614;2022-10-14T04:09:06;39.85;;;24.33;;
23670;SDS011;12012;51.998;7.614;2022-10-14T04:11:32;36.38;;;22.75;;
23670;SDS011;12012;51.998;7.614;2022-10-14T04:13:58;36.95;;;24.00;;
23670;SDS011;12012;51.998;7.614;2022-10-14T04:16:24;53.97;;;32.75;;
23670;SDS011;12012;51.998;7.614;2022-10-14T04:18:51;26.60;;;18.83;;
23670;SDS011;12012;51.998;7.614;2022-10-14T04:21:17;30.20;;;20.92;;
23670;SDS011;12012;51.998;7.614;2022-10-14T04:23:42;32.40;;;20.55;;
23670;SDS011;12012;51.998;7.614;2022-10-14T04:26:08;26.40;;;16.90;;
23670;SDS011;12012;51.998;7.614;2022-10-14T04:28:34;27.35;;;16.88;;
23670;SDS011;12012;51.998;7.614;2022-10-14T04:31:00;24.88;;;17.08;;
23670;SDS011;12012;51.998;7.614;2022-10-14T04:33:26;26.60;;;18.65;;
23670;SDS011;12012;51.998;7.614;2022-10-14T04:35:59;23.65;;;17.45;;
23670;SDS011;12012;51.998;7.614;2022-10-14T04:38:26;24.20;;;16.73;;
23670;SDS011;12012;51.998;7.614;2022-10-14T04:40:52;29.52;;;21.05;;
23670;SDS011;12012;51.998;7.614;2022-10-14T04:43:18;29.83;;;19.25;;
23670;SDS011;12012;51.998;7.614;2022-10-14T04:45:44;29.85;;;19.98;;
23670;SDS011;12012;51.998;7.614;2022-10-14T04:48:09;21.88;;;15.23;;
23670;SDS011;12012;51.998;7.614;2022-10-14T04:50:35;23.92;;;15.45;;
23670;SDS011;12012;51.998;7.614;2022-10-14T04:53:01;24.95;;;17.25;;
23670;SDS011;12012;51.998;7.614;2022-10-14T04:55:26;26.23;;;18.38;;
23670;SDS011;12012;51.998;7.614;2022-10-14T04:57:52;31.23;;;21.15;;
23670;SDS011;12012;51.998;7.614;2022-10-14T05:00:17;33.58;;;22.17;;
23670;SDS011;12012;51.998;7.614;2022-10-14T05:02:43;37.53;;;24.80;;
23670;SDS011;12012;51.998;7.614;2022-10-14T05:05:09;30.95;;;21.23;;
23670;SDS011;12012;51.998;7.614;2022-10-14T05:07:35;31.38;;;19.95;;
23670;SDS011;12012;51.998;7.614;2022-10-14T05:10:00;37.03;;;23.95;;
23670;SDS011;12012;51.998;7.614;2022-10-14T05:12:28;35.08;;;23.10;;
23670;SDS011;12012;51.998;7.614;2022-10-14T05:14:54;39.90;;;25.80;;
23670;SDS011;12012;51.998;7.614;2022-10-14T05:17:20;31.00;;;21.35;;
23670;SDS011;12012;51.998;7.614;2022-10-14T05:19:46;33.78;;;21.48;;
23670;SDS011;12012;51.998;7.614;2022-10-14T05:22:11;26.13;;;18.15;;
23670;SDS011;12012;51.998;7.614;2022-10-14T05:24:37;32.75;;;20.98;;
23670;SDS011;12012;51.998;7.614;2022-10-14T05:27:02;27.42;;;18.60;;
23670;SDS011;12012;51.998;7.614;2022-10-14T05:29:28;30.90;;;19.67;;
23670;SDS011;12012;51.998;7.614;2022-10-14T05:31:54;24.98;;;16.90;;
23670;SDS011;12012;51.998;7.614;2022-10-14T05:34:19;23.77;;;16.23;;
23670;SDS011;12012;51.998;7.614;2022-10-14T05:36:45;31.70;;;21.15;;
23670;SDS011;12012;51.998;7.614;2022-10-14T05:39:10;27.88;;;17.27;;
23670;SDS011;12012;51.998;7.614;2022-10-14T05:41:36;30.60;;;19.13;;
23670;SDS011;12012;51.998;7.614;2022-10-14T05:44:02;29.67;;;20.05;;
23670;SDS011;12012;51.998;7.614;2022-10-14T05:46:28;29.60;;;19.30;;
23670;SDS011;12012;51.998;7.614;2022-10-14T05:48:55;26.13;;;16.38;;
23670;SDS011;12012;51.998;7.614;2022-10-14T05:51:21;33.00;;;20.33;;
23670;SDS011;12012;51.998;7.614;2022-10-14T05:53:46;29.00;;;19.30;;
23670;SDS011;12012;51.998;7.614;2022-10-14T05:56:12;52.35;;;27.40;;
23670;SDS011;12012;51.998;7.614;2022-10-14T05:58:39;37.58;;;21.75;;
23670;SDS011;12012;51.998;7.614;2022-10-14T06:01:05;45.05;;;26.83;;
23670;SDS011;12012;51.998;7.614;2022-10-14T06:03:33;39.33;;;22.05;;
23670;SDS011;12012;51.998;7.614;2022-10-14T06:05:59;75.93;;;38.08;;
23670;SDS011;12012;51.998;7.614;2022-10-14T06:08:26;40.72;;;22.15;;
23670;SDS011;12012;51.998;7.614;2022-10-14T06:10:52;23.38;;;16.48;;
23670;SDS011;12012;51.998;7.614;2022-10-14T06:13:18;42.33;;;25.73;;
23670;SDS011;12012;51.998;7.614;2022-10-14T06:15:44;33.85;;;18.63;;
23670;SDS011;12012;51.998;7.614;2022-10-14T06:18:10;35.42;;;21.15;;
23670;SDS011;12012;51.998;7.614;2022-10-14T06:20:35;40.55;;;22.60;;
23670;SDS011;12012;51.998;7.614;2022-10-14T06:23:01;32.08;;;19.80;;
23670;SDS011;12012;51.998;7.614;2022-10-14T06:25:28;22.63;;;16.10;;
23670;SDS011;12012;51.998;7.614;2022-10-14T06:27:54;36.42;;;20.55;;
23670;SDS011;12012;51.998;7.614;2022-10-14T06:30:25;30.55;;;18.38;;
23670;SDS011;12012;51.998;7.614;2022-10-14T06:32:51;38.95;;;23.75;;
23670;SDS011;12012;51.998;7.614;2022-10-14T06:35:17;35.85;;;20.67;;
23670;SDS011;12012;51.998;7.614;2022-10-14T06:37:44;32.38;;;19.20;;
23670;SDS011;12012;51.998;7.614;2022-10-14T06:40:10;44.55;;;24.55;;
23670;SDS011;12012;51.998;7.614;2022-10-14T06:42:36;41.13;;;22.13;;
23670;SDS011;12012;51.998;7.614;2022-10-14T06:45:02;39.30;;;22.70;;
23670;SDS011;12012;51.998;7.614;2022-10-14T06:47:28;55.20;;;30.33;;
23670;SDS011;12012;51.998;7.614;2022-10-14T06:49:55;53.53;;;29.63;;
23670;SDS011;12012;51.998;7.614;2022-10-14T06:52:20;38.80;;;23.48;;
23670;SDS011;12012;51.998;7.614;2022-10-14T06:54:46;38.35;;;22.92;;
23670;SDS011;12012;51.998;7.614;2022-10-14T06:57:11;41.15;;;25.02;;
23670;SDS011;12012;51.998;7.614;2022-10-14T06:59:37;39.08;;;24.23;;
23670;SDS011;12012;51.998;7.614;2022-10-14T07:02:03;41.25;;;24.33;;
23670;SDS011;12012;51.998;7.614;2022-10-14T07:04:29;56.08;;;30.98;;
23670;SDS011;12012;51.998;7.614;2022-10-14T07:06:54;45.78;;;25.55;;
23670;SDS011;12012;51.998;7.614;2022-10-14T07:09:22;39.67;;;23.85;;
23670;SDS011;12012;51.998;7.614;2022-10-14T07:11:50;61.08;;;33.78;;
23670;SDS011;12012;51.998;7.614;2022-10-14T07:14:16;50.17;;;28.38;;
23670;SDS011;12012;51.998;7.614;2022-10-14T07:16:42;51.00;;;28.70;;
23670;SDS011;12012;51.998;7.614;2022-10-14T07:19:08;47.75;;;28.25;;
23670;SDS011;12012;51.998;7.614;2022-10-14T07:21:33;47.55;;;28.75;;
23670;SDS011;12012;51.998;7.614;2022-10-14T07:23:59;60.38;;;32.20;;
23670;SDS011;12012;51.998;7.614;2022-10-14T07:26:25;47.90;;;28.92;;
23670;SDS011;12012;51.998;7.614;2022-10-14T07:28:50;51.33;;;31.05;;
23670;SDS011;12012;51.998;7.614;2022-10-14T07:31:16;44.33;;;26.48;;
23670;SDS011;12012;51.998;7.614;2022-10-14T07:33:42;39.65;;;24.48;;
23670;SDS011;12012;51.998;7.614;2022-10-14T07:36:09;38.55;;;24.27;;
23670;SDS011;12012;51.998;7.614;2022-10-14T07:38:37;37.08;;;25.15;;
23670;SDS011;12012;51.998;7.614;2022-10-14T07:41:07;38.42;;;24.05;;
23670;SDS011;12012;51.998;7.614;2022-10-14T07:43:41;34.13;;;22.80;;
23670;SDS011;12012;51.998;7.614;2022-10-14T07:46:07;32.75;;;23.13;;
23670;SDS011;12012;51.998;7.614;2022-10-14T07:48:34;34.53;;;22.95;;
23670;SDS011;12012;51.998;7.614;2022-10-14T07:51:00;33.55;;;22.90;;
23670;SDS011;12012;51.998;7.614;2022-10-14T07:53:26;32.35;;;21.92;;
23670;SDS011;12012;51.998;7.614;2022-10-14T07:55:52;35.10;;;24.48;;
23670;SDS011;12012;51.998;7.614;2022-10-14T07:58:22;29.67;;;22.30;;
23670;SDS011;12012;51.998;7.614;2022-10-14T08:00:50;29.50;;;21.90;;
23670;SDS011;12012;51.998;7.614;2022-10-14T08:03:16;24.70;;;19.63;;
23670;SDS011;12012;51.998;7.614;2022-10-14T08:05:43;29.38;;;22.75;;
23670;SDS011;12012;51.998;7.614;2022-10-14T08:08:09;28.38;;;20.15;;
23670;SDS011;12012;51.998;7.614;2022-10-14T08:10:35;33.53;;;24.70;;
23670;SDS011;12012;51.998;7.614;2022-10-14T08:13:02;30.42;;;22.48;;
23670;SDS011;12012;51.998;7.614;2022-10-14T08:15:31;23.88;;;18.15;;
23670;SDS011;12012;51.998;7.614;2022-10-14T08:17:58;31.30;;;24.17;;
23670;SDS011;12012;51.998;7.614;2022-10-14T08:20:23;22.20;;;19.17;;
23670;SDS011;12012;51.998;7.614;2022-10-14T08:22:49;39.70;;;31.15;;
23670;SDS011;12012;51.998;7.614;2022-10-14T08:25:14;27.45;;;22.20;;
23670;SDS011;12012;51.998;7.614;2022-10-14T08:27:40;26.45;;;22.77;;
23670;SDS011;12012;51.998;7.614;2022-10-14T08:30:06;22.17;;;19.17;;
23670;SDS011;12012;51.998;7.614;2022-10-14T08:32:32;18.60;;;16.60;;
23670;SDS011;12012;51.998;7.614;2022-10-14T08:34:57;22.00;;;18.65;;
23670;SDS011;12012;51.998;7.614;2022-10-14T08:37:23;18.05;;;16.15;;
23670;SDS011;12012;51.998;7.614;2022-10-14T08:39:48;15.57;;;13.85;;
23670;SDS011;12012;51.998;7.614;2022-10-14T08:45:16;16.83;;;15.02;;
23670;SDS011;12012;51.998;7.614;2022-10-14T08:47:48;13.77;;;11.73;;
23670;SDS011;12012;51.998;7.614;2022-10-14T08:50:24;11.48;;;10.27;;
23670;SDS011;12012;51.998;7.614;2022-10-14T08:53:12;11.93;;;10.65;;
23670;SDS011;12012;51.998;7.614;2022-10-14T08:55:52;13.30;;;10.85;;
23670;SDS011;12012;51.998;7.614;2022-10-14T09:00:49;9.65;;;8.65;;
23670;SDS011;12012;51.998;7.614;2022-10-14T09:03:24;10.18;;;8.40;;
23670;SDS011;12012;51.998;7.614;2022-10-14T09:06:01;9.05;;;7.72;;
23670;SDS011;12012;51.998;7.614;2022-10-14T09:08:32;8.57;;;7.38;;
23670;SDS011;12012;51.998;7.614;2022-10-14T09:11:02;9.35;;;8.32;;
23670;SDS011;12012;51.998;7.614;2022-10-14T09:13:34;7.95;;;7.13;;
23670;SDS011;12012;51.998;7.614;2022-10-14T09:16:21;9.25;;;8.32;;
23670;SDS011;12012;51.998;7.614;2022-10-14T09:21:30;6.50;;;5.90;;
23670;SDS011;12012;51.998;7.614;2022-10-14T09:24:23;8.55;;;6.78;;
23670;SDS011;12012;51.998;7.614;2022-10-14T09:26:57;7.82;;;7.10;;
23670;SDS011;12012;51.998;7.614;2022-10-14T09:29:28;6.88;;;5.57;;
23670;SDS011;12012;51.998;7.614;2022-10-14T09:32:04;5.75;;;5.25;;
23670;SDS011;12012;51.998;7.614;2022-10-14T09:34:39;6.25;;;5.43;;
23670;SDS011;12012;51.998;7.614;2022-10-14T09:39:52;6.75;;;4.57;;
23670;SDS011;12012;51.998;7.614;2022-10-14T09:42:21;5.22;;;4.63;;
23670;SDS011;12012;51.998;7.614;2022-10-14T09:45:03;5.25;;;4.72;;
23670;SDS011;12012;51.998;7.614;2022-10-14T09:47:34;6.30;;;4.82;;
23670;SDS011;12012;51.998;7.614;2022-10-14T09:50:09;6.25;;;5.30;;
23670;SDS011;12012;51.998;7.614;2022-10-14T09:52:47;5.80;;;4.18;;
23670;SDS011;12012;51.998;7.614;2022-10-14T09:55:18;5.20;;;4.45;;
23670;SDS011;12012;51.998;7.614;2022-10-14T09:57:45;4.25;;;3.80;;
23670;SDS011;12012;51.998;7.614;2022-10-14T10:00:23;4.07;;;3.55;;
23670;SDS011;12012;51.998;7.614;2022-10-14T10:02:51;5.38;;;3.67;;
23670;SDS011;12012;51.998;7.614;2022-10-14T10:05:30;5.00;;;3.75;;
23670;SDS011;12012;51.998;7.614;2022-10-14T10:08:14;5.35;;;3.63;;
23670;SDS011;12012;51.998;7.614;2022-10-14T10:10:48;4.43;;;4.03;;
23670;SDS011;12012;51.998;7.614;2022-10-14T10:13:21;3.97;;;3.58;;
23670;SDS011;12012;51.998;7.614;2022-10-14T10:16:00;3.88;;;3.42;;
23670;SDS011;12012;51.998;7.614;2022-10-14T10:18:28;4.13;;;2.90;;
23670;SDS011;12012;51.998;7.614;2022-10-14T10:21:28;4.03;;;3.22;;
23670;SDS011;12012;51.998;7.614;2022-10-14T10:23:51;4.20;;;3.60;;
23670;SDS011;12012;51.998;7.614;2022-10-14T10:26:31;7.40;;;3.40;;
23670;SDS011;12012;51.998;7.614;2022-10-14T10:29:02;4.87;;;4.10;;
23670;SDS011;12012;51.998;7.614;2022-10-14T10:37:20;4.95;;;4.38;;
23670;SDS011;12012;51.998;7.614;2022-10-14T10:42:47;6.47;;;5.47;;
23670;SDS011;12012;51.998;7.614;2022-10-14T10:47:58;5.30;;;4.78;;
23670;SDS011;12012;51.998;7.614;2022-10-14T10:51:05;6.10;;;4.53;;
23670;SDS011;12012;51.998;7.614;2022-10-14T10:56:47;5.15;;;4.35;;
23670;SDS011;12012;51.998;7.614;2022-10-14T11:13:58;5.85;;;5.20;;
23670;SDS011;12012;51.998;7.614;2022-10-14T11:16:49;5.68;;;4.35;;
23670;SDS011;12012;51.998;7.614;2022-10-14T11:19:51;6.10;;;5.05;;
23670;SDS011;12012;51.998;7.614;2022-10-14T11:40:02;3.83;;;3.42;;
23670;SDS011;12012;51.998;7.614;2022-10-14T11:47:40;3.40;;;3.10;;
23670;SDS011;12012;51.998;7.614;2022-10-14T11:50:17;3.50;;;2.85;;
23670;SDS011;12012;51.998;7.614;2022-10-14T11:53:02;4.97;;;3.25;;
23670;SDS011;12012;51.998;7.614;2022-10-14T11:55:35;3.65;;;3.35;;
23670;SDS011;12012;51.998;7.614;2022-10-14T11:58:09;3.28;;;2.92;;
23670;SDS011;12012;51.998;7.614;2022-10-14T12:00:40;3.30;;;3.00;;
23670;SDS011;12012;51.998;7.614;2022-10-14T12:05:58;2.22;;;2.03;;
23670;SDS011;12012;51.998;7.614;2022-10-14T12:14:32;1.90;;;1.80;;
23670;SDS011;12012;51.998;7.614;2022-10-14T12:16:44;2.50;;;1.88;;
23670;SDS011;12012;51.998;7.614;2022-10-14T12:19:11;3.30;;;1.65;;
23670;SDS011;12012;51.998;7.614;2022-10-14T12:21:52;2.97;;;2.00;;
23670;SDS011;12012;51.998;7.614;2022-10-14T12:24:23;2.55;;;1.95;;
23670;SDS011;12012;51.998;7.614;2022-10-14T12:27:01;2.53;;;1.70;;
23670;SDS011;12012;51.998;7.614;2022-10-14T12:29:36;2.30;;;2.10;;
23670;SDS011;12012;51.998;7.614;2022-10-14T12:32:07;2.30;;;2.00;;
23670;SDS011;12012;51.998;7.614;2022-10-14T12:34:44;2.30;;;2.10;;
23670;SDS011;12012;51.998;7.614;2022-10-14T12:42:27;4.72;;;1.98;;
23670;SDS011;12012;51.998;7.614;2022-10-14T12:44:55;2.17;;;1.92;;
23670;SDS011;12012;51.998;7.614;2022-10-14T12:47:29;2.70;;;1.65;;
23670;SDS011;12012;51.998;7.614;2022-10-14T12:52:39;3.40;;;1.60;;
23670;SDS011;12012;51.998;7.614;2022-10-14T12:55:20;1.95;;;1.70;;
23670;SDS011;12012;51.998;7.614;2022-10-14T12:57:55;1.73;;;1.35;;
23670;SDS011;12012;51.998;7.614;2022-10-14T13:02:50;2.03;;;1.80;;
23670;SDS011;12012;51.998;7.614;2022-10-14T13:23:51;2.95;;;1.70;;
23670;SDS011;12012;51.998;7.614;2022-10-14T13:26:32;2.05;;;1.55;;
23670;SDS011;12012;51.998;7.614;2022-10-14T13:35:10;1.77;;;1.42;;
23670;SDS011;12012;51.998;7.614;2022-10-14T13:37:44;2.08;;;1.70;;
23670;SDS011;12012;51.998;7.614;2022-10-14T13:40:34;2.25;;;1.80;;
23670;SDS011;12012;51.998;7.614;2022-10-14T13:45:45;3.22;;;2.50;;
23670;SDS011;12012;51.998;7.614;2022-10-14T13:48:15;2.00;;;1.67;;
23670;SDS011;12012;51.998;7.614;2022-10-14T13:50:45;2.38;;;2.17;;
23670;SDS011;12012;51.998;7.614;2022-10-14T13:53:17;3.45;;;1.95;;
23670;SDS011;12012;51.998;7.614;2022-10-14T13:55:45;2.92;;;2.00;;
23670;SDS011;12012;51.998;7.614;2022-10-14T13:58:21;2.25;;;1.65;;
23670;SDS011;12012;51.998;7.614;2022-10-14T14:03:33;3.00;;;2.30;;
23670;SDS011;12012;51.998;7.614;2022-10-14T14:06:01;3.67;;;2.28;;
23670;SDS011;12012;51.998;7.614;2022-10-14T14:08:33;3.45;;;2.67;;
23670;SDS011;12012;51.998;7.614;2022-10-14T14:11:02;4.57;;;3.20;;
23670;SDS011;12012;51.998;7.614;2022-10-14T14:13:32;4.43;;;2.70;;
23670;SDS011;12012;51.998;7.614;2022-10-14T14:16:14;4.00;;;3.30;;
23670;SDS011;12012;51.998;7.614;2022-10-14T14:18:45;4.68;;;3.78;;
23670;SDS011;12012;51.998;7.614;2022-10-14T14:21:12;3.92;;;3.50;;
23670;SDS011;12012;51.998;7.614;2022-10-14T14:23:51;4.00;;;3.60;;
23670;SDS011;12012;51.998;7.614;2022-10-14T14:26:42;6.28;;;3.95;;
23670;SDS011;12012;51.998;7.614;2022-10-14T14:29:15;5.38;;;3.85;;
23670;SDS011;12012;51.998;7.614;2022-10-14T14:31:44;4.88;;;4.38;;
23670;SDS011;12012;51.998;7.614;2022-10-14T14:34:18;6.30;;;4.30;;
23670;SDS011;12012;51.998;7.614;2022-10-14T14:36:45;4.28;;;3.22;;
23670;SDS011;12012;51.998;7.614;2022-10-14T14:39:27;5.45;;;3.80;;
23670;SDS011;12012;51.998;7.614;2022-10-14T14:41:57;7.63;;;4.85;;
23670;SDS011;12012;51.998;7.614;2022-10-14T14:44:27;6.80;;;5.50;;
23670;SDS011;12012;51.998;7.614;2022-10-14T14:46:58;7.20;;;5.53;;
23670;SDS011;12012;51.998;7.614;2022-10-14T14:49:29;6.55;;;5.32;;
23670;SDS011;12012;51.998;7.614;2022-10-14T14:51:59;5.07;;;4.57;;
23670;SDS011;12012;51.998;7.614;2022-10-14T14:54:25;5.90;;;5.07;;
23670;SDS011;12012;51.998;7.614;2022-10-14T14:56:59;4.65;;;4.03;;
23670;SDS011;12012;51.998;7.614;2022-10-14T14:59:30;7.10;;;5.43;;
23670;SDS011;12012;51.998;7.614;2022-10-14T15:01:56;11.45;;;8.20;;
23670;SDS011;12012;51.998;7.614;2022-10-14T15:04:24;9.63;;;7.20;;
23670;SDS011;12012;51.998;7.614;2022-10-14T15:07:02;12.32;;;8.73;;
23670;SDS011;12012;51.998;7.614;2022-10-14T15:12:06;11.95;;;8.50;;
23670;SDS011;12012;51.998;7.614;2022-10-14T15:14:47;14.07;;;11.25;;
23670;SDS011;12012;51.998;7.614;2022-10-14T15:20:42;10.10;;;8.55;;
23670;SDS011;12012;51.998;7.614;2022-10-14T15:22:53;13.77;;;10.30;;
23670;SDS011;12012;51.998;7.614;2022-10-14T15:25:23;11.20;;;8.50;;
23670;SDS011;12012;51.998;7.614;2022-10-14T15:28:00;10.27;;;8.13;;
23670;SDS011;12012;51.998;7.614;2022-10-14T15:33:17;12.70;;;8.98;;
23670;SDS011;12012;51.998;7.614;2022-10-14T15:35:45;11.25;;;8.80;;
23670;SDS011;12012;51.998;7.614;2022-10-14T15:38:17;8.15;;;6.80;;
23670;SDS011;12012;51.998;7.614;2022-10-14T15:40:46;8.98;;;6.60;;
23670;SDS011;12012;51.998;7.614;2022-10-14T15:43:18;10.20;;;8.82;;
23670;SDS011;12012;51.998;7.614;2022-10-14T15:45:47;9.48;;;8.40;;
23670;SDS011;12012;51.998;7.614;2022-10-14T15:48:36;10.65;;;8.63;;
23670;SDS011;12012;51.998;7.614;2022-10-14T15:51:11;10.68;;;8.63;;
23670;SDS011;12012;51.998;7.614;2022-10-14T15:53:39;9.00;;;8.10;;
23670;SDS011;12012;51.998;7.614;2022-10-14T15:56:05;11.73;;;9.18;;
23670;SDS011;12012;51.998;7.614;2022-10-14T15:58:31;11.00;;;9.27;;
23670;SDS011;12012;51.998;7.614;2022-10-14T16:00:58;9.95;;;8.93;;
23670;SDS011;12012;51.998;7.614;2022-10-14T16:03:24;9.70;;;8.32;;
23670;SDS011;12012;51.998;7.614;2022-10-14T16:05:50;8.65;;;7.10;;
23670;SDS011;12012;51.998;7.614;2022-10-14T16:08:16;9.00;;;7.32;;
23670;SDS011;12012;51.998;7.614;2022-10-14T16:10:42;9.73;;;8.05;;
23670;SDS011;12012;51.998;7.614;2022-10-14T16:13:12;8.55;;;7.15;;
23670;SDS011;12012;51.998;7.614;2022-10-14T16:18:34;11.68;;;9.43;;
23670;SDS011;12012;51.998;7.614;2022-10-14T16:20:59;10.38;;;9.15;;
23670;SDS011;12012;51.998;7.614;2022-10-14T16:23:25;9.55;;;8.55;;
23670;SDS011;12012;51.998;7.614;2022-10-14T16:25:51;8.60;;;7.70;;
23670;SDS011;12012;51.998;7.614;2022-10-14T16:28:17;11.82;;;10.63;;
23670;SDS011;12012;51.998;7.614;2022-10-14T16:30:45;12.98;;;11.57;;
23670;SDS011;12012;51.998;7.614;2022-10-14T16:33:19;18.10;;;14.65;;
23670;SDS011;12012;51.998;7.614;2022-10-14T16:35:49;11.68;;;9.85;;
23670;SDS011;12012;51.998;7.614;2022-10-14T16:38:17;12.65;;;10.93;;
23670;SDS011;12012;51.998;7.614;2022-10-14T16:40:43;10.77;;;9.65;;
23670;SDS011;12012;51.998;7.614;2022-10-14T16:43:09;11.60;;;10.25;;
23670;SDS011;12012;51.998;7.614;2022-10-14T16:45:35;14.27;;;11.80;;
23670;SDS011;12012;51.998;7.614;2022-10-14T16:48:00;13.48;;;11.43;;
23670;SDS011;12012;51.998;7.614;2022-10-14T16:50:26;13.77;;;11.45;;
23670;SDS011;12012;51.998;7.614;2022-10-14T16:52:52;16.90;;;13.50;;
23670;SDS011;12012;51.998;7.614;2022-10-14T16:55:36;13.40;;;12.00;;
23670;SDS011;12012;51.998;7.614;2022-10-14T16:58:03;15.13;;;11.63;;
23670;SDS011;12012;51.998;7.614;2022-10-14T17:00:29;13.52;;;11.50;;
23670;SDS011;12012;51.998;7.614;2022-10-14T17:02:54;11.07;;;9.80;;
23670;SDS011;12012;51.998;7.614;2022-10-14T17:05:20;16.50;;;13.48;;
23670;SDS011;12012;51.998;7.614;2022-10-14T17:07:45;10.43;;;9.32;;
23670;SDS011;12012;51.998;7.614;2022-10-14T17:10:11;13.88;;;11.18;;
23670;SDS011;12012;51.998;7.614;2022-10-14T17:12:36;11.15;;;10.05;;